createdAt,value
2017-11-25T00:01:11.475Z,100692.44
2017-11-25T00:03:14.807Z,100691.08
2017-11-25T00:05:18.218Z,100691.08
2017-11-25T00:07:21.521Z,100687.45
2017-11-25T00:09:24.886Z,100682.59
2017-11-25T00:11:28.193Z,100683.52
2017-11-25T00:13:31.589Z,100681.75
2017-11-25T00:15:34.890Z,100677.70
2017-11-25T00:17:38.206Z,100667.73
2017-11-25T00:19:41.498Z,100667.83
2017-11-25T00:21:44.860Z,100665.13
2017-11-25T00:23:48.467Z,100663.78
2017-11-25T00:25:51.745Z,100662.43
2017-11-25T00:27:55.047Z,100657.12
2017-11-25T00:29:58.371Z,100660.66
2017-11-25T00:32:01.662Z,100662.01
2017-11-25T00:34:05.054Z,100661.59
2017-11-25T00:36:08.373Z,100653.48
2017-11-25T00:38:11.659Z,100657.95
2017-11-25T00:40:14.966Z,100658.05
2017-11-25T00:42:18.277Z,100659.40
2017-11-25T00:44:21.571Z,100667.50
2017-11-25T00:46:24.871Z,100673.74
2017-11-25T00:48:28.243Z,100676.11
2017-11-25T00:50:31.541Z,100665.82
2017-11-25T00:52:34.908Z,100675.09
2017-11-25T00:54:38.212Z,100676.95
2017-11-25T00:56:41.678Z,100681.52
2017-11-25T00:58:44.977Z,100684.22
2017-11-25T01:00:48.297Z,100687.34
2017-11-25T01:02:51.654Z,100688.17
2017-11-25T01:04:55.041Z,100685.56
2017-11-25T01:06:58.358Z,100692.31
2017-11-25T01:09:01.658Z,100685.66
2017-11-25T01:11:04.953Z,100691.89
2017-11-25T01:13:08.279Z,100692.83
2017-11-25T01:15:11.561Z,100695.02
2017-11-25T01:17:14.888Z,100684.30
2017-11-25T01:19:19.059Z,100687.84
2017-11-25T01:21:22.338Z,100691.06
2017-11-25T01:23:25.677Z,100695.95
2017-11-25T01:25:29.042Z,100689.32
2017-11-25T01:27:32.338Z,100691.06
2017-11-25T01:29:35.666Z,100681.73
2017-11-25T01:31:38.974Z,100681.31
2017-11-25T01:33:42.291Z,100684.43
2017-11-25T01:35:45.665Z,100677.67
2017-11-25T01:37:48.970Z,100677.67
2017-11-25T01:39:52.269Z,100684.43
2017-11-25T01:41:55.571Z,100687.55
2017-11-25T01:43:58.881Z,100682.56
2017-11-25T01:46:02.170Z,100677.98
2017-11-25T01:48:05.470Z,100661.34
2017-11-25T01:50:08.929Z,100666.36
2017-11-25T01:52:12.478Z,100667.30
2017-11-25T01:54:15.834Z,100667.30
2017-11-25T01:56:19.145Z,100660.55
2017-11-25T01:58:22.538Z,100657.42
2017-11-25T02:00:25.910Z,100656.59
2017-11-25T02:02:29.293Z,100653.05
2017-11-25T02:04:32.585Z,100646.80
2017-11-25T02:06:35.878Z,100636.94
2017-11-25T02:08:39.194Z,100629.25
2017-11-25T02:10:42.568Z,100637.98
2017-11-25T02:12:45.857Z,100635.58
2017-11-25T02:14:49.178Z,100628.92
2017-11-25T02:16:52.481Z,100627.48
2017-11-25T02:18:55.834Z,100621.23
2017-11-25T02:20:59.161Z,100614.07
2017-11-25T02:23:02.473Z,100619.89
2017-11-25T02:25:05.782Z,100616.77
2017-11-25T02:27:09.095Z,100608.80
2017-11-25T02:29:12.384Z,100602.97
2017-11-25T02:31:15.702Z,100605.67
2017-11-25T02:33:19.054Z,100611.49
2017-11-25T02:35:22.346Z,100614.19
2017-11-25T02:37:26.662Z,100623.13
2017-11-25T02:39:29.970Z,100616.89
2017-11-25T02:41:33.333Z,100620.95
2017-11-25T02:43:36.727Z,100619.17
2017-11-25T02:45:40.117Z,100618.34
2017-11-25T02:47:43.407Z,100619.17
2017-11-25T02:49:46.797Z,100613.27
2017-11-25T02:51:50.106Z,100606.09
2017-11-25T02:53:53.402Z,100597.57
2017-11-25T02:55:56.694Z,100594.45
2017-11-25T02:58:00.066Z,100598.50
2017-11-25T03:00:03.606Z,100590.91
2017-11-25T03:02:06.959Z,100588.22
2017-11-25T03:04:10.273Z,100588.73
2017-11-25T03:06:13.621Z,100590.50
2017-11-25T03:08:16.924Z,100586.45
2017-11-25T03:10:20.250Z,100576.16
2017-11-25T03:12:23.552Z,100578.34
2017-11-25T03:14:26.879Z,100581.13
2017-11-25T03:16:30.180Z,100589.66
2017-11-25T03:18:33.474Z,100587.47
2017-11-25T03:20:36.761Z,100593.41
2017-11-25T03:22:40.083Z,100583.00
2017-11-25T03:24:43.525Z,100576.79
2017-11-25T03:26:46.920Z,100584.47
2017-11-25T03:28:51.606Z,100576.79
2017-11-25T03:30:54.905Z,100576.88
2017-11-25T03:32:58.198Z,100570.04
2017-11-25T03:35:01.517Z,100573.67
2017-11-25T03:37:04.837Z,100565.56
2017-11-25T03:39:08.135Z,100556.54
2017-11-25T03:41:11.490Z,100558.82
2017-11-25T03:43:14.877Z,100566.08
2017-11-25T03:45:18.173Z,100572.83
2017-11-25T03:47:21.561Z,100571.48
2017-11-25T03:49:24.853Z,100562.96
2017-11-25T03:51:28.165Z,100562.03
2017-11-25T03:53:31.499Z,100560.68
2017-11-25T03:55:34.832Z,100557.98
2017-11-25T03:57:38.122Z,100558.91
2017-11-25T03:59:41.497Z,100569.71
2017-11-25T04:01:45.069Z,100562.03
2017-11-25T04:03:48.362Z,100557.98
2017-11-25T04:05:51.785Z,100555.37
2017-11-25T04:07:55.237Z,100554.95
2017-11-25T04:09:58.604Z,100545.92
2017-11-25T04:12:01.922Z,100538.75
2017-11-25T04:14:05.247Z,100543.73
2017-11-25T04:16:08.637Z,100543.73
2017-11-25T04:18:12.048Z,100545.72
2017-11-25T04:20:15.419Z,100550.58
2017-11-25T04:22:18.770Z,100547.88
2017-11-25T04:24:22.107Z,100547.88
2017-11-25T04:26:25.396Z,100550.19
2017-11-25T04:28:28.698Z,100551.00
2017-11-25T04:30:32.077Z,100551.54
2017-11-25T04:32:35.462Z,100547.48
2017-11-25T04:34:38.757Z,100541.55
2017-11-25T04:36:42.143Z,100549.64
2017-11-25T04:38:45.423Z,100550.58
2017-11-25T04:40:48.831Z,100550.19
2017-11-25T04:42:52.146Z,100547.36
2017-11-25T04:44:55.437Z,100537.62
2017-11-25T04:46:58.762Z,100525.34
2017-11-25T04:49:02.081Z,100525.89
2017-11-25T04:51:05.378Z,100522.23
2017-11-25T04:53:08.681Z,100522.34
2017-11-25T04:55:11.987Z,100529.94
2017-11-25T04:57:15.281Z,100534.92
2017-11-25T04:59:18.643Z,100529.52
2017-11-25T05:01:21.953Z,100532.73
2017-11-25T05:03:25.425Z,100537.71
2017-11-25T05:05:28.713Z,100536.78
2017-11-25T05:07:32.025Z,100537.71
2017-11-25T05:09:35.389Z,100541.76
2017-11-25T05:11:38.781Z,100548.52
2017-11-25T05:13:42.136Z,100549.34
2017-11-25T05:15:45.429Z,100546.74
2017-11-25T05:17:48.757Z,100545.39
2017-11-25T05:19:52.074Z,100550.38
2017-11-25T05:21:55.444Z,100556.61
2017-11-25T05:23:58.824Z,100550.38
2017-11-25T05:26:02.164Z,100552.14
2017-11-25T05:28:05.457Z,100548.09
2017-11-25T05:30:08.759Z,100548.52
2017-11-25T05:32:12.076Z,100555.77
2017-11-25T05:34:15.368Z,100562.01
2017-11-25T05:36:18.767Z,100563.45
2017-11-25T05:38:22.101Z,100557.12
2017-11-25T05:40:25.444Z,100554.00
2017-11-25T05:42:28.738Z,100557.12
2017-11-25T05:44:32.125Z,100571.55
2017-11-25T05:46:35.416Z,100568.85
2017-11-25T05:48:38.811Z,100570.11
2017-11-25T05:50:42.206Z,100561.59
2017-11-25T05:52:45.498Z,100563.03
2017-11-25T05:54:48.784Z,100566.06
2017-11-25T05:56:52.177Z,100566.16
2017-11-25T05:58:55.499Z,100568.02
2017-11-25T06:00:58.813Z,100562.20
2017-11-25T06:03:02.189Z,100560.00
2017-11-25T06:05:05.841Z,100562.20
2017-11-25T06:07:09.129Z,100562.83
2017-11-25T06:09:12.450Z,100571.34
2017-11-25T06:11:15.737Z,100560.55
2017-11-25T06:13:19.104Z,100558.27
2017-11-25T06:15:22.410Z,100555.95
2017-11-25T06:17:25.701Z,100559.49
2017-11-25T06:19:29.069Z,100556.50
2017-11-25T06:21:32.462Z,100552.96
2017-11-25T06:23:35.761Z,100560.00
2017-11-25T06:25:39.065Z,100570.30
2017-11-25T06:27:42.376Z,100562.83
2017-11-25T06:29:45.674Z,100569.06
2017-11-25T06:31:48.973Z,100570.93
2017-11-25T06:33:52.305Z,100563.76
2017-11-25T06:35:55.600Z,100571.86
2017-11-25T06:37:58.982Z,100569.58
2017-11-25T06:40:02.301Z,100572.28
2017-11-25T06:42:05.618Z,100581.22
2017-11-25T06:44:08.929Z,100576.75
2017-11-25T06:46:12.353Z,100581.22
2017-11-25T06:48:15.742Z,100579.45
2017-11-25T06:50:19.040Z,100584.94
2017-11-25T06:52:22.418Z,100596.58
2017-11-25T06:54:25.713Z,100603.33
2017-11-25T06:56:29.098Z,100600.12
2017-11-25T06:58:32.491Z,100600.50
2017-11-25T07:00:35.796Z,100609.66
2017-11-25T07:02:39.083Z,100613.29
2017-11-25T07:04:42.422Z,100616.41
2017-11-25T07:06:46.227Z,100622.73
2017-11-25T07:08:49.553Z,100627.20
2017-11-25T07:10:52.877Z,100626.79
2017-11-25T07:12:56.230Z,100629.91
2017-11-25T07:14:59.533Z,100629.91
2017-11-25T07:17:02.850Z,100633.63
2017-11-25T07:19:06.142Z,100643.50
2017-11-25T07:21:09.428Z,100647.55
2017-11-25T07:23:12.745Z,100645.27
2017-11-25T07:25:16.047Z,100653.46
2017-11-25T07:27:19.357Z,100650.76
2017-11-25T07:29:22.723Z,100659.28
2017-11-25T07:31:26.018Z,100658.86
2017-11-25T07:33:29.313Z,100667.37
2017-11-25T07:35:32.621Z,100672.36
2017-11-25T07:37:35.909Z,100674.13
2017-11-25T07:39:39.301Z,100679.95
2017-11-25T07:41:42.617Z,100678.17
2017-11-25T07:43:45.910Z,100675.06
2017-11-25T07:45:49.202Z,100673.70
2017-11-25T07:47:52.522Z,100679.53
2017-11-25T07:49:55.825Z,100684.92
2017-11-25T07:51:59.142Z,100695.73
2017-11-25T07:54:02.539Z,100699.78
2017-11-25T07:56:05.926Z,100702.90
2017-11-25T07:58:09.219Z,100706.11
2017-11-25T08:00:12.611Z,100704.25
2017-11-25T08:02:15.949Z,100706.53
2017-11-25T08:04:19.235Z,100709.23
2017-11-25T08:06:22.549Z,100711.50
2017-11-25T08:08:26.138Z,100708.81
2017-11-25T08:10:29.431Z,100715.14
2017-11-25T08:12:32.748Z,100716.91
2017-11-25T08:14:36.047Z,100714.20
2017-11-25T08:16:39.346Z,100725.01
2017-11-25T08:18:42.659Z,100720.95
2017-11-25T08:20:45.959Z,100726.36
2017-11-25T08:22:49.306Z,100731.34
2017-11-25T08:24:52.617Z,100734.45
2017-11-25T08:26:55.917Z,100743.48
2017-11-25T08:28:59.273Z,100744.33
2017-11-25T08:31:02.598Z,100746.19
2017-11-25T08:33:05.893Z,100745.26
2017-11-25T08:35:09.185Z,100736.73
2017-11-25T08:37:12.518Z,100745.67
2017-11-25T08:39:15.815Z,100745.26
2017-11-25T08:41:19.114Z,100753.78
2017-11-25T08:43:22.601Z,100750.23
2017-11-25T08:45:26.195Z,100752.01
2017-11-25T08:47:30.220Z,100753.78
2017-11-25T08:49:33.908Z,100756.90
2017-11-25T08:51:37.190Z,100757.41
2017-11-25T08:53:40.488Z,100757.83
2017-11-25T08:55:43.887Z,100760.02
2017-11-25T08:57:47.175Z,100762.30
2017-11-25T08:59:50.522Z,100770.40
2017-11-25T09:01:53.818Z,100768.53
2017-11-25T09:03:57.116Z,100771.75
2017-11-25T09:06:00.448Z,100776.64
2017-11-25T09:08:03.818Z,100780.18
2017-11-25T09:10:07.504Z,100769.37
2017-11-25T09:12:10.802Z,100770.30
2017-11-25T09:14:14.119Z,100775.70
2017-11-25T09:16:17.415Z,100776.55
2017-11-25T09:18:20.709Z,100774.78
2017-11-25T09:20:24.095Z,100783.59
2017-11-25T09:22:27.388Z,100782.75
2017-11-25T09:24:30.759Z,100783.72
2017-11-25T09:26:34.078Z,100785.45
2017-11-25T09:28:37.433Z,100785.45
2017-11-25T09:30:40.781Z,100793.05
2017-11-25T09:32:44.173Z,100796.17
2017-11-25T09:34:47.507Z,100793.37
2017-11-25T09:36:50.793Z,100794.31
2017-11-25T09:38:54.112Z,100786.20
2017-11-25T09:40:57.406Z,100788.40
2017-11-25T09:43:00.712Z,100787.05
2017-11-25T09:45:04.151Z,100784.86
2017-11-25T09:47:10.574Z,100788.82
2017-11-25T09:49:14.532Z,100787.05
2017-11-25T09:51:18.037Z,100790.67
2017-11-25T09:53:21.555Z,100786.12
2017-11-25T09:55:25.081Z,100785.19
2017-11-25T09:57:28.881Z,100793.29
2017-11-25T09:59:32.315Z,100795.48
2017-11-25T10:01:35.598Z,100790.59
2017-11-25T10:03:38.904Z,100795.78
2017-11-25T10:05:42.229Z,100796.29
2017-11-25T10:07:45.505Z,100810.33
2017-11-25T10:09:48.824Z,100795.36
2017-11-25T10:11:52.441Z,100791.31
2017-11-25T10:13:55.733Z,100797.13
2017-11-25T10:15:59.050Z,100788.10
2017-11-25T10:18:02.485Z,100794.77
2017-11-25T10:20:05.922Z,100796.63
2017-11-25T10:22:09.298Z,100794.34
2017-11-25T10:24:12.689Z,100793.92
2017-11-25T10:26:16.902Z,100795.36
2017-11-25T10:28:20.261Z,100797.97
2017-11-25T10:30:23.586Z,100800.16
2017-11-25T10:32:26.900Z,100802.02
2017-11-25T10:34:30.257Z,100805.98
2017-11-25T10:36:33.623Z,100810.97
2017-11-25T10:38:36.923Z,100810.03
2017-11-25T10:40:40.245Z,100807.33
2017-11-25T10:42:43.632Z,100815.02
2017-11-25T10:44:46.927Z,100811.38
2017-11-25T10:46:50.239Z,100814.50
2017-11-25T10:48:53.531Z,100810.45
2017-11-25T10:50:56.818Z,100801.52
2017-11-25T10:53:00.138Z,100812.23
2017-11-25T10:55:03.445Z,100808.69
2017-11-25T10:57:06.865Z,100809.95
2017-11-25T10:59:10.254Z,100810.36
2017-11-25T11:01:13.600Z,100812.64
2017-11-25T11:03:16.886Z,100814.41
2017-11-25T11:05:20.365Z,100810.36
2017-11-25T11:07:23.654Z,100816.58
2017-11-25T11:09:26.957Z,100819.27
2017-11-25T11:11:30.298Z,100809.73
2017-11-25T11:13:33.855Z,100813.19
2017-11-25T11:15:37.158Z,100815.89
2017-11-25T11:17:40.531Z,100815.80
2017-11-25T11:19:43.860Z,100819.94
2017-11-25T11:21:47.255Z,100824.83
2017-11-25T11:23:50.570Z,100822.55
2017-11-25T11:25:53.947Z,100824.83
2017-11-25T11:27:57.253Z,100829.30
2017-11-25T11:30:00.678Z,100832.30
2017-11-25T11:32:03.966Z,100831.07
2017-11-25T11:34:07.256Z,100837.70
2017-11-25T11:36:10.577Z,100839.05
2017-11-25T11:38:13.872Z,100837.70
2017-11-25T11:40:17.265Z,100839.56
2017-11-25T11:42:20.656Z,100844.03
2017-11-25T11:44:23.973Z,100844.36
2017-11-25T11:46:27.298Z,100845.30
2017-11-25T11:48:30.671Z,100849.34
2017-11-25T11:50:33.975Z,100851.11
2017-11-25T11:52:37.362Z,100846.13
2017-11-25T11:54:40.681Z,100851.45
2017-11-25T11:56:43.978Z,100846.55
2017-11-25T11:58:47.466Z,100845.20
2017-11-25T12:00:50.860Z,100844.78
2017-11-25T12:02:54.158Z,100852.38
2017-11-25T12:04:57.565Z,100854.57
2017-11-25T12:07:00.959Z,100856.42
2017-11-25T12:09:04.263Z,100864.11
2017-11-25T12:11:07.601Z,100864.53
2017-11-25T12:13:11.032Z,100860.39
2017-11-25T12:15:14.687Z,100860.39
2017-11-25T12:17:17.998Z,100860.48
2017-11-25T12:19:21.345Z,100867.14
2017-11-25T12:21:24.710Z,100867.14
2017-11-25T12:23:28.025Z,100863.52
2017-11-25T12:25:31.365Z,100868.49
2017-11-25T12:27:34.703Z,100866.21
2017-11-25T12:29:38.055Z,100881.88
2017-11-25T12:31:41.478Z,100868.38
2017-11-25T12:33:44.828Z,100861.20
2017-11-25T12:35:48.153Z,100867.95
2017-11-25T12:37:51.567Z,100872.42
2017-11-25T12:39:54.923Z,100869.72
2017-11-25T12:41:58.330Z,100870.14
2017-11-25T12:44:01.649Z,100874.11
2017-11-25T12:46:04.951Z,100869.55
2017-11-25T12:48:08.259Z,100869.55
2017-11-25T12:50:11.670Z,100872.25
2017-11-25T12:52:16.364Z,100878.06
2017-11-25T12:54:19.659Z,100871.23
2017-11-25T12:56:22.967Z,100872.58
2017-11-25T12:58:26.278Z,100872.04
2017-11-25T13:00:29.669Z,100876.09
2017-11-25T13:02:32.993Z,100878.70
2017-11-25T13:04:36.318Z,100880.56
2017-11-25T13:06:39.698Z,100884.10
2017-11-25T13:08:43.021Z,100886.30
2017-11-25T13:10:51.633Z,100887.73
2017-11-25T13:12:55.037Z,100898.45
2017-11-25T13:14:58.512Z,100901.15
2017-11-25T13:17:03.290Z,100900.22
2017-11-25T13:19:06.585Z,100902.41
2017-11-25T13:21:10.123Z,100903.34
2017-11-25T13:23:13.413Z,100907.81
2017-11-25T13:25:16.708Z,100903.25
2017-11-25T13:27:20.084Z,100905.02
2017-11-25T13:29:23.482Z,100910.52
2017-11-25T13:31:26.886Z,100902.41
2017-11-25T13:33:30.185Z,100905.95
2017-11-25T13:35:33.592Z,100909.08
2017-11-25T13:37:36.885Z,100911.36
2017-11-25T13:39:40.205Z,100906.80
2017-11-25T13:41:43.494Z,100904.48
2017-11-25T13:43:46.878Z,100914.36
2017-11-25T13:45:50.297Z,100916.04
2017-11-25T13:47:53.590Z,100911.98
2017-11-25T13:49:56.886Z,100912.50
2017-11-25T13:52:00.205Z,100920.93
2017-11-25T13:54:03.490Z,100926.33
2017-11-25T13:56:06.785Z,100929.03
2017-11-25T13:58:10.105Z,100928.53
2017-11-25T14:00:13.426Z,100928.53
2017-11-25T14:02:16.705Z,100928.83
2017-11-25T14:04:20.033Z,100936.55
2017-11-25T14:06:23.332Z,100946.92
2017-11-25T14:08:26.665Z,100947.73
2017-11-25T14:10:30.016Z,100949.84
2017-11-25T14:12:33.299Z,100945.37
2017-11-25T14:14:36.624Z,100958.45
2017-11-25T14:16:40.062Z,100955.66
2017-11-25T14:18:43.618Z,100957.52
2017-11-25T14:20:46.931Z,100954.73
2017-11-25T14:22:50.340Z,100951.61
2017-11-25T14:24:53.757Z,100963.56
2017-11-25T14:26:57.060Z,100959.63
2017-11-25T14:29:00.405Z,100966.27
2017-11-25T14:31:03.713Z,100967.11
2017-11-25T14:33:07.061Z,100971.16
2017-11-25T14:35:10.512Z,100978.75
2017-11-25T14:37:13.830Z,100980.73
2017-11-25T14:39:17.134Z,100982.80
2017-11-25T14:41:20.641Z,100976.56
2017-11-25T14:43:23.969Z,100978.75
2017-11-25T14:45:27.277Z,100980.52
2017-11-25T14:47:30.599Z,100981.88
2017-11-25T14:49:33.889Z,100986.34
2017-11-25T14:51:37.195Z,100986.77
2017-11-25T14:53:40.514Z,100991.75
2017-11-25T14:55:43.824Z,100997.06
2017-11-25T14:57:47.177Z,100994.36
2017-11-25T14:59:50.580Z,100995.30
2017-11-25T15:01:53.897Z,100992.59
2017-11-25T15:03:57.197Z,100997.99
2017-11-25T15:06:00.539Z,101004.75
2017-11-25T15:08:03.926Z,101003.82
2017-11-25T15:10:07.339Z,101009.31
2017-11-25T15:12:10.653Z,101007.45
2017-11-25T15:14:13.944Z,101009.22
2017-11-25T15:16:17.254Z,101005.68
2017-11-25T15:18:20.570Z,101017.33
2017-11-25T15:20:24.037Z,101016.48
2017-11-25T15:22:27.426Z,101014.29
2017-11-25T15:24:30.753Z,101018.34
2017-11-25T15:26:34.043Z,101030.50
2017-11-25T15:28:37.337Z,101026.36
2017-11-25T15:30:42.233Z,101031.34
2017-11-25T15:32:45.518Z,101028.22
2017-11-25T15:34:48.833Z,101036.32
2017-11-25T15:36:52.221Z,101039.95
2017-11-25T15:38:55.510Z,101039.02
2017-11-25T15:40:58.801Z,101041.30
2017-11-25T15:43:02.134Z,101044.00
2017-11-25T15:45:05.436Z,101051.69
2017-11-25T15:47:08.737Z,101045.86
2017-11-25T15:49:12.046Z,101042.66
2017-11-25T15:51:15.361Z,101051.69
2017-11-25T15:53:18.650Z,101056.25
2017-11-25T15:55:21.982Z,101061.56
2017-11-25T15:57:25.280Z,101060.30
2017-11-25T15:59:28.605Z,101067.48
2017-11-25T16:01:31.934Z,101067.98
2017-11-25T16:03:35.224Z,101076.09
2017-11-25T16:05:38.521Z,101073.81
2017-11-25T16:07:41.945Z,101078.28
2017-11-25T16:09:45.234Z,101082.33
2017-11-25T16:11:48.523Z,101080.98
2017-11-25T16:13:51.873Z,101085.45
2017-11-25T16:15:55.171Z,101081.49
2017-11-25T16:17:58.461Z,101085.97
2017-11-25T16:20:01.785Z,101086.08
2017-11-25T16:22:05.389Z,101083.27
2017-11-25T16:24:08.874Z,101089.72
2017-11-25T16:26:12.216Z,101088.03
2017-11-25T16:28:15.519Z,101092.08
2017-11-25T16:30:18.893Z,101097.91
2017-11-25T16:32:22.278Z,101096.98
2017-11-25T16:34:25.661Z,101102.97
2017-11-25T16:36:28.957Z,101108.80
2017-11-25T16:38:32.275Z,101109.64
2017-11-25T16:40:35.583Z,101109.30
2017-11-25T16:42:38.886Z,101115.13
2017-11-25T16:44:42.256Z,101111.16
2017-11-25T16:46:45.553Z,101113.36
2017-11-25T16:48:48.861Z,101114.70
2017-11-25T16:50:52.205Z,101110.77
2017-11-25T16:52:55.504Z,101116.56
2017-11-25T16:54:58.809Z,101115.63
2017-11-25T16:57:02.161Z,101120.23
2017-11-25T16:59:05.453Z,101129.77
2017-11-25T17:01:08.749Z,101124.78
2017-11-25T17:03:12.089Z,101126.56
2017-11-25T17:05:15.413Z,101128.00
2017-11-25T17:07:18.786Z,101132.47
2017-11-25T17:09:22.198Z,101140.58
2017-11-25T17:11:25.493Z,101144.20
2017-11-25T17:13:28.781Z,101154.08
2017-11-25T17:15:32.097Z,101150.53
2017-11-25T17:17:35.466Z,101160.91
2017-11-25T17:19:38.845Z,101155.94
2017-11-25T17:21:42.248Z,101160.91
2017-11-25T17:23:45.813Z,101165.48
2017-11-25T17:25:49.104Z,101160.08
2017-11-25T17:27:52.484Z,101157.80
2017-11-25T17:29:55.774Z,101163.70
2017-11-25T17:31:59.103Z,101165.98
2017-11-25T17:34:02.460Z,101169.61
2017-11-25T17:36:05.844Z,101166.49
2017-11-25T17:38:09.135Z,101167.03
2017-11-25T17:40:12.441Z,101168.80
2017-11-25T17:42:15.781Z,101169.31
2017-11-25T17:44:19.094Z,101183.66
2017-11-25T17:46:22.416Z,101176.91
2017-11-25T17:48:25.795Z,101180.95
2017-11-25T17:50:29.106Z,101183.66
2017-11-25T17:52:32.466Z,101186.95
2017-11-25T17:54:35.745Z,101185.17
2017-11-25T17:56:39.037Z,101186.95
2017-11-25T17:58:42.369Z,101189.14
2017-11-25T18:00:45.773Z,101195.48
2017-11-25T18:02:49.164Z,101195.98
2017-11-25T18:04:52.546Z,101201.38
2017-11-25T18:06:55.833Z,101206.37
2017-11-25T18:08:59.158Z,101203.24
2017-11-25T18:11:02.496Z,101204.25
2017-11-25T18:13:05.805Z,101209.27
2017-11-25T18:15:09.116Z,101216.02
2017-11-25T18:17:12.502Z,101216.95
2017-11-25T18:19:15.808Z,101223.16
2017-11-25T18:21:19.105Z,101226.83
2017-11-25T18:23:22.454Z,101227.33
2017-11-25T18:25:25.937Z,101231.89
2017-11-25T18:27:29.238Z,101234.51
2017-11-25T18:29:32.560Z,101235.94
2017-11-25T18:31:35.928Z,101240.92
2017-11-25T18:33:39.312Z,101244.47
2017-11-25T18:35:42.634Z,101249.02
2017-11-25T18:37:45.939Z,101253.50
2017-11-25T18:39:49.244Z,101248.69
2017-11-25T18:41:52.561Z,101250.03
2017-11-25T18:43:55.870Z,101253.58
2017-11-25T18:45:59.173Z,101255.44
2017-11-25T18:48:02.548Z,101257.21
2017-11-25T18:50:05.839Z,101259.06
2017-11-25T18:52:09.293Z,101261.89
2017-11-25T18:54:12.612Z,101255.94
2017-11-25T18:56:15.948Z,101259.58
2017-11-25T18:58:19.307Z,101258.84
2017-11-25T19:00:22.640Z,101256.56
2017-11-25T19:02:25.929Z,101260.28
2017-11-25T19:04:29.240Z,101266.52
2017-11-25T19:06:32.584Z,101268.80
2017-11-25T19:08:35.921Z,101273.36
2017-11-25T19:10:39.241Z,101271.08
2017-11-25T19:12:42.582Z,101274.37
2017-11-25T19:14:45.911Z,101281.13
2017-11-25T19:16:49.222Z,101283.94
2017-11-25T19:18:52.544Z,101286.64
2017-11-25T19:20:55.893Z,101287.99
2017-11-25T19:22:59.187Z,101290.27
2017-11-25T19:25:02.503Z,101290.27
2017-11-25T19:27:06.143Z,101293.48
2017-11-25T19:29:09.450Z,101292.05
2017-11-25T19:31:12.897Z,101296.69
2017-11-25T19:33:16.211Z,101295.76
2017-11-25T19:35:19.529Z,101303.02
2017-11-25T19:37:22.848Z,101308.84
2017-11-25T19:39:26.218Z,101312.47
2017-11-25T19:41:29.531Z,101318.37
2017-11-25T19:43:33.273Z,101317.45
2017-11-25T19:45:37.069Z,101314.75
2017-11-25T19:47:40.618Z,101317.95
2017-11-25T19:49:44.383Z,101317.53
2017-11-25T19:51:48.726Z,101324.28
2017-11-25T19:53:52.889Z,101322.93
2017-11-25T19:55:57.208Z,101320.77
2017-11-25T19:58:00.501Z,101325.75
2017-11-25T20:00:03.816Z,101327.09
2017-11-25T20:02:07.209Z,101335.20
2017-11-25T20:04:10.706Z,101330.81
2017-11-25T20:06:15.453Z,101336.62
2017-11-25T20:08:19.134Z,101337.22
2017-11-25T20:10:22.561Z,101340.77
2017-11-25T20:12:25.878Z,101348.02
2017-11-25T20:14:29.209Z,101344.81
2017-11-25T20:16:32.589Z,101349.71
2017-11-25T20:18:35.917Z,101353.00
2017-11-25T20:20:39.225Z,101353.42
2017-11-25T20:22:42.538Z,101357.39
2017-11-25T20:24:45.957Z,101358.40
2017-11-25T20:26:49.301Z,101359.33
2017-11-25T20:28:52.704Z,101364.34
2017-11-25T20:30:56.130Z,101366.50
2017-11-25T20:32:59.450Z,101362.03
2017-11-25T20:35:02.769Z,101371.09
2017-11-25T20:37:06.069Z,101373.80
2017-11-25T20:39:09.394Z,101364.84
2017-11-25T20:41:12.803Z,101370.24
2017-11-25T20:43:16.171Z,101369.41
2017-11-25T20:45:19.587Z,101373.45
2017-11-25T20:47:22.998Z,101376.66
2017-11-25T20:49:26.276Z,101376.73
2017-11-25T20:51:29.719Z,101383.41
2017-11-25T20:53:33.057Z,101382.98
2017-11-25T20:55:36.624Z,101386.19
2017-11-25T20:57:40.085Z,101389.23
2017-11-25T20:59:43.477Z,101397.84
2017-11-25T21:01:46.869Z,101390.66
2017-11-25T21:03:50.465Z,101396.48
2017-11-25T21:05:53.783Z,101393.36
2017-11-25T21:07:57.144Z,101400.53
2017-11-25T21:10:00.540Z,101399.69
2017-11-25T21:12:03.999Z,101392.02
2017-11-25T21:14:07.340Z,101395.22
2017-11-25T21:16:10.687Z,101399.27
2017-11-25T21:18:14.035Z,101400.20
2017-11-25T21:20:17.337Z,101400.63
2017-11-25T21:22:20.776Z,101404.25
2017-11-25T21:24:24.049Z,101405.09
2017-11-25T21:26:27.734Z,101402.90
2017-11-25T21:28:31.143Z,101399.89
2017-11-25T21:30:34.683Z,101404.36
2017-11-25T21:32:38.027Z,101395.84
2017-11-25T21:34:41.650Z,101400.73
2017-11-25T21:36:45.191Z,101400.81
2017-11-25T21:38:48.570Z,101400.81
2017-11-25T21:40:51.995Z,101401.74
2017-11-25T21:42:55.518Z,101402.16
2017-11-25T21:44:58.869Z,101400.39
2017-11-25T21:47:02.215Z,101401.74
2017-11-25T21:49:05.547Z,101403.09
2017-11-25T21:51:09.061Z,101393.22
2017-11-25T21:53:12.632Z,101407.56
2017-11-25T21:55:16.021Z,101405.80
2017-11-25T21:57:19.349Z,101408.50
2017-11-25T21:59:22.720Z,101410.27
2017-11-25T22:01:26.098Z,101410.34
2017-11-25T22:03:29.523Z,101408.07
2017-11-25T22:05:32.932Z,101406.30
2017-11-25T22:07:36.362Z,101406.72
2017-11-25T22:09:39.814Z,101400.89
2017-11-25T22:11:43.311Z,101406.30
2017-11-25T22:13:46.686Z,101408.58
2017-11-25T22:15:50.011Z,101409.84
2017-11-25T22:17:53.533Z,101417.60
2017-11-25T22:19:57.083Z,101414.91
2017-11-25T22:22:00.421Z,101419.45
2017-11-25T22:24:03.769Z,101430.18
2017-11-25T22:26:07.158Z,101427.48
2017-11-25T22:28:10.518Z,101436.51
2017-11-25T22:30:14.050Z,101439.63
2017-11-25T22:32:17.525Z,101445.53
2017-11-25T22:34:21.049Z,101444.19
2017-11-25T22:36:24.406Z,101444.19
2017-11-25T22:38:27.712Z,101445.53
2017-11-25T22:40:31.115Z,101441.98
2017-11-25T22:42:34.495Z,101448.31
2017-11-25T22:44:37.948Z,101441.68
2017-11-25T22:46:41.351Z,101437.63
2017-11-25T22:48:44.858Z,101446.97
2017-11-25T22:50:48.209Z,101449.28
2017-11-25T22:52:51.625Z,101447.39
2017-11-25T22:54:54.925Z,101443.95
2017-11-25T22:56:58.246Z,101450.63
2017-11-25T22:59:01.628Z,101457.77
2017-11-25T23:01:05.183Z,101453.21
2017-11-25T23:03:08.512Z,101457.37
2017-11-25T23:05:11.906Z,101454.25
2017-11-25T23:07:15.407Z,101460.89
2017-11-25T23:09:18.740Z,101455.48
2017-11-25T23:11:22.342Z,101451.55
2017-11-25T23:13:25.758Z,101438.86
2017-11-25T23:15:29.154Z,101436.70
2017-11-25T23:17:32.551Z,101439.91
2017-11-25T23:19:35.978Z,101445.73
2017-11-25T23:21:40.254Z,101448.86
2017-11-25T23:23:43.554Z,101442.19
2017-11-25T23:25:46.910Z,101436.28
2017-11-25T23:27:50.245Z,101436.78